sensor_id;sensor_type;location;lat;lon;timestamp;P1;durP1;ratioP1;P2;durP2;ratioP2
3949;SDS011;53057;50.988;6.314;2023-02-28T00:01:18;14.68;;;9.20;;
3949;SDS011;53057;50.988;6.314;2023-02-28T00:03:45;15.20;;;9.80;;
3949;SDS011;53057;50.988;6.314;2023-02-28T00:06:11;15.65;;;9.57;;
3949;SDS011;53057;50.988;6.314;2023-02-28T00:08:38;13.30;;;8.98;;
3949;SDS011;53057;50.988;6.314;2023-02-28T00:11:06;13.75;;;8.38;;
3949;SDS011;53057;50.988;6.314;2023-02-28T00:13:34;16.17;;;7.78;;
3949;SDS011;53057;50.988;6.314;2023-02-28T00:16:02;13.18;;;7.72;;
3949;SDS011;53057;50.988;6.314;2023-02-28T00:18:29;12.05;;;7.88;;
3949;SDS011;53057;50.988;6.314;2023-02-28T00:20:57;12.63;;;7.65;;
3949;SDS011;53057;50.988;6.314;2023-02-28T00:23:24;11.85;;;8.98;;
3949;SDS011;53057;50.988;6.314;2023-02-28T00:25:51;11.50;;;7.10;;
3949;SDS011;53057;50.988;6.314;2023-02-28T00:28:19;15.02;;;8.77;;
3949;SDS011;53057;50.988;6.314;2023-02-28T00:30:46;10.00;;;6.97;;
3949;SDS011;53057;50.988;6.314;2023-02-28T00:33:13;11.45;;;7.35;;
3949;SDS011;53057;50.988;6.314;2023-02-28T00:35:40;12.98;;;8.88;;
3949;SDS011;53057;50.988;6.314;2023-02-28T00:38:08;13.38;;;7.30;;
3949;SDS011;53057;50.988;6.314;2023-02-28T00:40:34;11.38;;;7.38;;
3949;SDS011;53057;50.988;6.314;2023-02-28T00:43:01;13.52;;;8.85;;
3949;SDS011;53057;50.988;6.314;2023-02-28T00:45:28;8.38;;;7.38;;
3949;SDS011;53057;50.988;6.314;2023-02-28T00:47:56;26.20;;;8.52;;
3949;SDS011;53057;50.988;6.314;2023-02-28T00:50:22;15.40;;;7.72;;
3949;SDS011;53057;50.988;6.314;2023-02-28T00:52:49;19.00;;;7.88;;
3949;SDS011;53057;50.988;6.314;2023-02-28T00:55:16;13.45;;;8.30;;
3949;SDS011;53057;50.988;6.314;2023-02-28T00:57:42;14.13;;;7.15;;
3949;SDS011;53057;50.988;6.314;2023-02-28T01:00:09;10.82;;;7.63;;
3949;SDS011;53057;50.988;6.314;2023-02-28T01:02:36;12.40;;;6.80;;
3949;SDS011;53057;50.988;6.314;2023-02-28T01:05:03;11.52;;;7.95;;
3949;SDS011;53057;50.988;6.314;2023-02-28T01:07:30;17.35;;;7.75;;
3949;SDS011;53057;50.988;6.314;2023-02-28T01:09:56;22.65;;;7.25;;
3949;SDS011;53057;50.988;6.314;2023-02-28T01:12:24;10.98;;;6.53;;
3949;SDS011;53057;50.988;6.314;2023-02-28T01:14:50;29.23;;;7.72;;
3949;SDS011;53057;50.988;6.314;2023-02-28T01:17:17;20.23;;;7.10;;
3949;SDS011;53057;50.988;6.314;2023-02-28T01:19:43;12.63;;;7.00;;
3949;SDS011;53057;50.988;6.314;2023-02-28T01:22:10;14.70;;;7.22;;
3949;SDS011;53057;50.988;6.314;2023-02-28T01:24:37;15.13;;;6.88;;
3949;SDS011;53057;50.988;6.314;2023-02-28T01:27:03;10.68;;;7.50;;
3949;SDS011;53057;50.988;6.314;2023-02-28T01:29:30;14.18;;;7.07;;
3949;SDS011;53057;50.988;6.314;2023-02-28T01:31:56;18.13;;;7.90;;
3949;SDS011;53057;50.988;6.314;2023-02-28T01:34:26;13.52;;;8.80;;
3949;SDS011;53057;50.988;6.314;2023-02-28T01:36:52;16.58;;;7.75;;
3949;SDS011;53057;50.988;6.314;2023-02-28T01:39:18;12.05;;;7.68;;
3949;SDS011;53057;50.988;6.314;2023-02-28T01:41:45;14.43;;;8.27;;
3949;SDS011;53057;50.988;6.314;2023-02-28T01:46:57;11.32;;;7.63;;
3949;SDS011;53057;50.988;6.314;2023-02-28T01:49:23;12.82;;;8.00;;
3949;SDS011;53057;50.988;6.314;2023-02-28T01:51:53;17.70;;;7.50;;
3949;SDS011;53057;50.988;6.314;2023-02-28T01:54:22;20.23;;;8.73;;
3949;SDS011;53057;50.988;6.314;2023-02-28T01:56:57;11.50;;;7.55;;
3949;SDS011;53057;50.988;6.314;2023-02-28T01:59:31;13.77;;;6.25;;
3949;SDS011;53057;50.988;6.314;2023-02-28T02:01:59;21.35;;;9.27;;
3949;SDS011;53057;50.988;6.314;2023-02-28T02:04:27;14.95;;;8.15;;
3949;SDS011;53057;50.988;6.314;2023-02-28T02:06:57;12.50;;;7.18;;
3949;SDS011;53057;50.988;6.314;2023-02-28T02:09:24;17.17;;;8.82;;
3949;SDS011;53057;50.988;6.314;2023-02-28T02:11:51;32.75;;;8.93;;
3949;SDS011;53057;50.988;6.314;2023-02-28T02:14:33;16.42;;;8.30;;
3949;SDS011;53057;50.988;6.314;2023-02-28T02:22:49;16.60;;;7.80;;
3949;SDS011;53057;50.988;6.314;2023-02-28T02:25:25;24.20;;;7.35;;
3949;SDS011;53057;50.988;6.314;2023-02-28T02:35:49;18.73;;;9.55;;
3949;SDS011;53057;50.988;6.314;2023-02-28T02:41:00;17.08;;;5.32;;
3949;SDS011;53057;50.988;6.314;2023-02-28T02:43:35;15.10;;;5.90;;
3949;SDS011;53057;50.988;6.314;2023-02-28T02:46:04;16.52;;;6.10;;
3949;SDS011;53057;50.988;6.314;2023-02-28T02:48:33;13.77;;;4.55;;
3949;SDS011;53057;50.988;6.314;2023-02-28T02:51:01;11.70;;;6.80;;
3949;SDS011;53057;50.988;6.314;2023-02-28T02:53:32;8.65;;;4.28;;
3949;SDS011;53057;50.988;6.314;2023-02-28T02:56:01;6.60;;;4.20;;
3949;SDS011;53057;50.988;6.314;2023-02-28T02:58:31;16.05;;;4.80;;
3949;SDS011;53057;50.988;6.314;2023-02-28T03:01:00;10.77;;;6.25;;
3949;SDS011;53057;50.988;6.314;2023-02-28T03:03:30;17.08;;;6.03;;
3949;SDS011;53057;50.988;6.314;2023-02-28T03:05:58;13.48;;;5.60;;
3949;SDS011;53057;50.988;6.314;2023-02-28T03:08:25;10.93;;;6.30;;
3949;SDS011;53057;50.988;6.314;2023-02-28T03:10:56;16.23;;;7.05;;
3949;SDS011;53057;50.988;6.314;2023-02-28T03:13:36;12.13;;;6.60;;
3949;SDS011;53057;50.988;6.314;2023-02-28T03:21:34;9.98;;;6.30;;
3949;SDS011;53057;50.988;6.314;2023-02-28T03:26:32;16.52;;;10.73;;
3949;SDS011;53057;50.988;6.314;2023-02-28T03:31:35;20.48;;;12.13;;
3949;SDS011;53057;50.988;6.314;2023-02-28T03:34:10;18.83;;;11.75;;
3949;SDS011;53057;50.988;6.314;2023-02-28T03:36:39;20.15;;;13.35;;
3949;SDS011;53057;50.988;6.314;2023-02-28T03:39:13;23.85;;;13.07;;
3949;SDS011;53057;50.988;6.314;2023-02-28T03:41:42;22.08;;;14.15;;
3949;SDS011;53057;50.988;6.314;2023-02-28T03:44:15;26.90;;;14.52;;
3949;SDS011;53057;50.988;6.314;2023-02-28T03:46:45;18.00;;;12.60;;
3949;SDS011;53057;50.988;6.314;2023-02-28T03:49:21;20.73;;;13.75;;
3949;SDS011;53057;50.988;6.314;2023-02-28T03:51:49;26.08;;;13.40;;
3949;SDS011;53057;50.988;6.314;2023-02-28T03:54:19;22.52;;;14.52;;
3949;SDS011;53057;50.988;6.314;2023-02-28T03:59:42;22.73;;;13.60;;
3949;SDS011;53057;50.988;6.314;2023-02-28T04:02:09;27.73;;;16.30;;
3949;SDS011;53057;50.988;6.314;2023-02-28T04:04:36;22.42;;;14.73;;
3949;SDS011;53057;50.988;6.314;2023-02-28T04:07:04;24.92;;;14.43;;
3949;SDS011;53057;50.988;6.314;2023-02-28T04:09:32;26.65;;;15.55;;
3949;SDS011;53057;50.988;6.314;2023-02-28T04:11:58;23.38;;;14.45;;
3949;SDS011;53057;50.988;6.314;2023-02-28T04:14:26;28.65;;;15.95;;
3949;SDS011;53057;50.988;6.314;2023-02-28T04:16:52;29.13;;;16.80;;
3949;SDS011;53057;50.988;6.314;2023-02-28T04:19:19;24.15;;;15.30;;
3949;SDS011;53057;50.988;6.314;2023-02-28T04:21:47;31.92;;;17.30;;
3949;SDS011;53057;50.988;6.314;2023-02-28T04:24:15;22.50;;;14.10;;
3949;SDS011;53057;50.988;6.314;2023-02-28T04:26:43;26.23;;;16.98;;
3949;SDS011;53057;50.988;6.314;2023-02-28T04:29:11;26.30;;;16.42;;
3949;SDS011;53057;50.988;6.314;2023-02-28T04:31:38;42.83;;;18.85;;
3949;SDS011;53057;50.988;6.314;2023-02-28T04:34:05;29.10;;;16.85;;
3949;SDS011;53057;50.988;6.314;2023-02-28T04:36:32;35.50;;;17.45;;
3949;SDS011;53057;50.988;6.314;2023-02-28T04:38:58;24.42;;;14.07;;
3949;SDS011;53057;50.988;6.314;2023-02-28T04:41:26;27.63;;;16.50;;
3949;SDS011;53057;50.988;6.314;2023-02-28T04:43:57;36.90;;;16.60;;
3949;SDS011;53057;50.988;6.314;2023-02-28T04:46:23;24.80;;;13.88;;
3949;SDS011;53057;50.988;6.314;2023-02-28T04:48:50;21.42;;;13.90;;
3949;SDS011;53057;50.988;6.314;2023-02-28T04:51:17;18.15;;;13.05;;
3949;SDS011;53057;50.988;6.314;2023-02-28T04:53:44;25.17;;;12.73;;
3949;SDS011;53057;50.988;6.314;2023-02-28T04:56:12;22.00;;;12.90;;
3949;SDS011;53057;50.988;6.314;2023-02-28T04:58:39;20.00;;;12.23;;
3949;SDS011;53057;50.988;6.314;2023-02-28T05:01:07;29.02;;;11.07;;
3949;SDS011;53057;50.988;6.314;2023-02-28T05:03:39;21.00;;;11.00;;
3949;SDS011;53057;50.988;6.314;2023-02-28T05:06:07;20.73;;;11.32;;
3949;SDS011;53057;50.988;6.314;2023-02-28T05:08:34;24.35;;;10.15;;
3949;SDS011;53057;50.988;6.314;2023-02-28T05:11:00;16.80;;;10.07;;
3949;SDS011;53057;50.988;6.314;2023-02-28T05:13:27;15.45;;;10.88;;
3949;SDS011;53057;50.988;6.314;2023-02-28T05:15:54;22.42;;;10.85;;
3949;SDS011;53057;50.988;6.314;2023-02-28T05:18:21;17.88;;;10.90;;
3949;SDS011;53057;50.988;6.314;2023-02-28T05:20:48;19.95;;;11.15;;
3949;SDS011;53057;50.988;6.314;2023-02-28T05:23:14;24.35;;;10.38;;
3949;SDS011;53057;50.988;6.314;2023-02-28T05:25:41;18.65;;;10.30;;
3949;SDS011;53057;50.988;6.314;2023-02-28T05:28:08;16.23;;;10.52;;
3949;SDS011;53057;50.988;6.314;2023-02-28T05:30:35;14.82;;;9.80;;
3949;SDS011;53057;50.988;6.314;2023-02-28T05:33:01;18.23;;;10.27;;
3949;SDS011;53057;50.988;6.314;2023-02-28T05:35:28;14.77;;;10.55;;
3949;SDS011;53057;50.988;6.314;2023-02-28T05:37:55;23.75;;;10.02;;
3949;SDS011;53057;50.988;6.314;2023-02-28T05:40:21;25.15;;;11.05;;
3949;SDS011;53057;50.988;6.314;2023-02-28T05:42:49;24.42;;;10.82;;
3949;SDS011;53057;50.988;6.314;2023-02-28T05:45:16;21.83;;;12.60;;
3949;SDS011;53057;50.988;6.314;2023-02-28T05:47:43;19.90;;;9.80;;
3949;SDS011;53057;50.988;6.314;2023-02-28T05:50:09;16.88;;;9.65;;
3949;SDS011;53057;50.988;6.314;2023-02-28T05:52:36;19.52;;;10.65;;
3949;SDS011;53057;50.988;6.314;2023-02-28T05:55:04;18.90;;;10.07;;
3949;SDS011;53057;50.988;6.314;2023-02-28T05:57:30;16.42;;;9.70;;
3949;SDS011;53057;50.988;6.314;2023-02-28T05:59:57;13.30;;;9.07;;
3949;SDS011;53057;50.988;6.314;2023-02-28T06:02:24;18.95;;;9.98;;
3949;SDS011;53057;50.988;6.314;2023-02-28T06:04:50;12.30;;;9.15;;
3949;SDS011;53057;50.988;6.314;2023-02-28T06:07:17;14.65;;;9.73;;
3949;SDS011;53057;50.988;6.314;2023-02-28T06:09:43;14.98;;;10.00;;
3949;SDS011;53057;50.988;6.314;2023-02-28T06:12:10;15.73;;;9.35;;
3949;SDS011;53057;50.988;6.314;2023-02-28T06:14:37;29.55;;;9.50;;
3949;SDS011;53057;50.988;6.314;2023-02-28T06:17:03;12.65;;;9.38;;
3949;SDS011;53057;50.988;6.314;2023-02-28T06:19:30;14.98;;;10.05;;
3949;SDS011;53057;50.988;6.314;2023-02-28T06:21:57;18.42;;;10.55;;
3949;SDS011;53057;50.988;6.314;2023-02-28T06:24:24;15.15;;;9.48;;
3949;SDS011;53057;50.988;6.314;2023-02-28T06:26:51;17.98;;;9.40;;
3949;SDS011;53057;50.988;6.314;2023-02-28T06:29:17;24.02;;;9.88;;
3949;SDS011;53057;50.988;6.314;2023-02-28T06:31:45;14.10;;;9.57;;
3949;SDS011;53057;50.988;6.314;2023-02-28T06:34:12;22.60;;;9.80;;
3949;SDS011;53057;50.988;6.314;2023-02-28T06:36:39;16.33;;;9.35;;
3949;SDS011;53057;50.988;6.314;2023-02-28T06:39:06;17.20;;;7.95;;
3949;SDS011;53057;50.988;6.314;2023-02-28T06:41:33;12.25;;;8.80;;
3949;SDS011;53057;50.988;6.314;2023-02-28T06:44:19;9.60;;;6.78;;
3949;SDS011;53057;50.988;6.314;2023-02-28T06:46:46;14.50;;;8.10;;
3949;SDS011;53057;50.988;6.314;2023-02-28T06:49:12;9.55;;;7.28;;
3949;SDS011;53057;50.988;6.314;2023-02-28T06:51:39;15.55;;;7.30;;
3949;SDS011;53057;50.988;6.314;2023-02-28T06:54:07;11.60;;;6.45;;
3949;SDS011;53057;50.988;6.314;2023-02-28T06:56:37;10.00;;;7.53;;
3949;SDS011;53057;50.988;6.314;2023-02-28T06:59:04;10.13;;;6.13;;
3949;SDS011;53057;50.988;6.314;2023-02-28T07:01:31;11.75;;;7.50;;
3949;SDS011;53057;50.988;6.314;2023-02-28T07:04:00;11.23;;;7.50;;
3949;SDS011;53057;50.988;6.314;2023-02-28T07:06:27;12.75;;;6.38;;
3949;SDS011;53057;50.988;6.314;2023-02-28T07:08:54;10.02;;;6.82;;
3949;SDS011;53057;50.988;6.314;2023-02-28T07:11:22;6.70;;;5.57;;
3949;SDS011;53057;50.988;6.314;2023-02-28T07:13:49;17.35;;;6.75;;
3949;SDS011;53057;50.988;6.314;2023-02-28T07:16:17;10.70;;;6.13;;
3949;SDS011;53057;50.988;6.314;2023-02-28T07:18:44;6.88;;;6.18;;
3949;SDS011;53057;50.988;6.314;2023-02-28T07:21:10;9.07;;;5.40;;
3949;SDS011;53057;50.988;6.314;2023-02-28T07:23:37;9.15;;;6.22;;
3949;SDS011;53057;50.988;6.314;2023-02-28T07:26:10;10.68;;;6.25;;
3949;SDS011;53057;50.988;6.314;2023-02-28T07:28:37;9.32;;;6.80;;
3949;SDS011;53057;50.988;6.314;2023-02-28T07:31:05;7.60;;;5.50;;
3949;SDS011;53057;50.988;6.314;2023-02-28T07:33:31;16.52;;;7.15;;
3949;SDS011;53057;50.988;6.314;2023-02-28T07:36:05;12.35;;;7.55;;
3949;SDS011;53057;50.988;6.314;2023-02-28T07:38:36;14.48;;;5.63;;
3949;SDS011;53057;50.988;6.314;2023-02-28T07:41:03;13.82;;;6.70;;
3949;SDS011;53057;50.988;6.314;2023-02-28T07:43:34;12.35;;;5.97;;
3949;SDS011;53057;50.988;6.314;2023-02-28T07:46:02;11.90;;;6.63;;
3949;SDS011;53057;50.988;6.314;2023-02-28T07:48:29;14.60;;;6.30;;
3949;SDS011;53057;50.988;6.314;2023-02-28T07:50:56;9.38;;;6.68;;
3949;SDS011;53057;50.988;6.314;2023-02-28T07:53:23;24.13;;;6.90;;
3949;SDS011;53057;50.988;6.314;2023-02-28T07:55:49;9.85;;;6.30;;
3949;SDS011;53057;50.988;6.314;2023-02-28T07:58:16;9.75;;;6.28;;
3949;SDS011;53057;50.988;6.314;2023-02-28T08:00:42;7.95;;;6.30;;
3949;SDS011;53057;50.988;6.314;2023-02-28T08:03:11;9.45;;;6.10;;
3949;SDS011;53057;50.988;6.314;2023-02-28T08:05:40;17.92;;;6.07;;
3949;SDS011;53057;50.988;6.314;2023-02-28T08:08:07;14.82;;;5.50;;
3949;SDS011;53057;50.988;6.314;2023-02-28T08:10:34;10.60;;;6.53;;
3949;SDS011;53057;50.988;6.314;2023-02-28T08:13:00;9.90;;;5.35;;
3949;SDS011;53057;50.988;6.314;2023-02-28T08:15:27;8.73;;;6.28;;
3949;SDS011;53057;50.988;6.314;2023-02-28T08:17:54;8.05;;;6.03;;
3949;SDS011;53057;50.988;6.314;2023-02-28T08:20:23;7.78;;;6.45;;
3949;SDS011;53057;50.988;6.314;2023-02-28T08:22:50;11.52;;;5.60;;
3949;SDS011;53057;50.988;6.314;2023-02-28T08:25:17;7.20;;;6.30;;
3949;SDS011;53057;50.988;6.314;2023-02-28T08:27:43;15.10;;;5.40;;
3949;SDS011;53057;50.988;6.314;2023-02-28T08:30:11;14.40;;;5.60;;
3949;SDS011;53057;50.988;6.314;2023-02-28T08:32:38;13.90;;;5.53;;
3949;SDS011;53057;50.988;6.314;2023-02-28T08:35:05;6.77;;;4.63;;
3949;SDS011;53057;50.988;6.314;2023-02-28T08:37:32;5.93;;;5.20;;
3949;SDS011;53057;50.988;6.314;2023-02-28T08:39:58;8.07;;;5.30;;
3949;SDS011;53057;50.988;6.314;2023-02-28T08:42:25;8.03;;;5.27;;
3949;SDS011;53057;50.988;6.314;2023-02-28T08:44:52;5.87;;;5.33;;
3949;SDS011;53057;50.988;6.314;2023-02-28T08:47:18;6.80;;;4.57;;
3949;SDS011;53057;50.988;6.314;2023-02-28T08:49:45;9.00;;;5.10;;
3949;SDS011;53057;50.988;6.314;2023-02-28T08:52:12;7.00;;;4.30;;
3949;SDS011;53057;50.988;6.314;2023-02-28T08:54:39;9.90;;;4.30;;
3949;SDS011;53057;50.988;6.314;2023-02-28T08:57:05;7.07;;;4.50;;
3949;SDS011;53057;50.988;6.314;2023-02-28T08:59:32;22.33;;;4.30;;
3949;SDS011;53057;50.988;6.314;2023-02-28T09:01:58;14.90;;;4.47;;
3949;SDS011;53057;50.988;6.314;2023-02-28T09:04:25;7.20;;;3.70;;
3949;SDS011;53057;50.988;6.314;2023-02-28T09:06:52;10.07;;;3.10;;
3949;SDS011;53057;50.988;6.314;2023-02-28T09:09:18;5.33;;;2.70;;
3949;SDS011;53057;50.988;6.314;2023-02-28T09:11:45;2.47;;;2.37;;
3949;SDS011;53057;50.988;6.314;2023-02-28T09:14:11;3.67;;;2.80;;
3949;SDS011;53057;50.988;6.314;2023-02-28T09:16:38;4.10;;;2.87;;
3949;SDS011;53057;50.988;6.314;2023-02-28T09:19:05;2.50;;;2.30;;
3949;SDS011;53057;50.988;6.314;2023-02-28T09:21:31;3.00;;;2.40;;
3949;SDS011;53057;50.988;6.314;2023-02-28T09:23:58;4.17;;;2.83;;
3949;SDS011;53057;50.988;6.314;2023-02-28T09:26:26;4.17;;;2.93;;
3949;SDS011;53057;50.988;6.314;2023-02-28T09:29:04;4.40;;;2.50;;
3949;SDS011;53057;50.988;6.314;2023-02-28T09:31:31;2.97;;;2.13;;
3949;SDS011;53057;50.988;6.314;2023-02-28T09:33:58;2.40;;;1.80;;
3949;SDS011;53057;50.988;6.314;2023-02-28T09:36:26;3.33;;;2.40;;
3949;SDS011;53057;50.988;6.314;2023-02-28T09:39:08;1.80;;;1.30;;
3949;SDS011;53057;50.988;6.314;2023-02-28T09:41:40;1.50;;;1.40;;
3949;SDS011;53057;50.988;6.314;2023-02-28T09:44:17;2.50;;;1.60;;
3949;SDS011;53057;50.988;6.314;2023-02-28T09:46:44;2.27;;;2.17;;
3949;SDS011;53057;50.988;6.314;2023-02-28T09:49:17;1.20;;;1.10;;
3949;SDS011;53057;50.988;6.314;2023-02-28T09:51:52;1.53;;;1.43;;
3949;SDS011;53057;50.988;6.314;2023-02-28T09:54:21;3.37;;;1.90;;
3949;SDS011;53057;50.988;6.314;2023-02-28T09:56:53;1.73;;;1.63;;
3949;SDS011;53057;50.988;6.314;2023-02-28T09:59:39;2.40;;;1.50;;
3949;SDS011;53057;50.988;6.314;2023-02-28T10:09:56;1.70;;;1.60;;
3949;SDS011;53057;50.988;6.314;2023-02-28T10:12:24;1.43;;;1.33;;
3949;SDS011;53057;50.988;6.314;2023-02-28T10:14:52;3.73;;;1.60;;
3949;SDS011;53057;50.988;6.314;2023-02-28T10:17:21;2.03;;;1.40;;
3949;SDS011;53057;50.988;6.314;2023-02-28T10:22:24;2.20;;;2.00;;
3949;SDS011;53057;50.988;6.314;2023-02-28T10:24:54;1.63;;;1.43;;
3949;SDS011;53057;50.988;6.314;2023-02-28T10:27:24;2.00;;;1.43;;
3949;SDS011;53057;50.988;6.314;2023-02-28T10:29:55;2.13;;;1.87;;
3949;SDS011;53057;50.988;6.314;2023-02-28T10:32:23;2.57;;;2.03;;
3949;SDS011;53057;50.988;6.314;2023-02-28T10:37:27;1.30;;;1.20;;
3949;SDS011;53057;50.988;6.314;2023-02-28T10:39:54;2.03;;;1.63;;
3949;SDS011;53057;50.988;6.314;2023-02-28T10:44:47;3.30;;;1.80;;
3949;SDS011;53057;50.988;6.314;2023-02-28T10:47:15;2.47;;;2.30;;
3949;SDS011;53057;50.988;6.314;2023-02-28T10:49:48;3.87;;;2.23;;
3949;SDS011;53057;50.988;6.314;2023-02-28T10:52:32;2.50;;;2.30;;
3949;SDS011;53057;50.988;6.314;2023-02-28T10:57:44;2.40;;;2.20;;
3949;SDS011;53057;50.988;6.314;2023-02-28T11:00:21;4.83;;;2.27;;
3949;SDS011;53057;50.988;6.314;2023-02-28T11:02:48;3.10;;;2.90;;
3949;SDS011;53057;50.988;6.314;2023-02-28T11:05:25;3.80;;;2.40;;
3949;SDS011;53057;50.988;6.314;2023-02-28T11:07:52;2.60;;;2.50;;
3949;SDS011;53057;50.988;6.314;2023-02-28T11:10:21;4.37;;;2.30;;
3949;SDS011;53057;50.988;6.314;2023-02-28T11:12:50;3.87;;;2.40;;
3949;SDS011;53057;50.988;6.314;2023-02-28T11:17:54;1.97;;;1.80;;
3949;SDS011;53057;50.988;6.314;2023-02-28T11:20:21;2.77;;;2.57;;
3949;SDS011;53057;50.988;6.314;2023-02-28T11:22:49;3.63;;;2.77;;
3949;SDS011;53057;50.988;6.314;2023-02-28T11:25:21;3.63;;;3.30;;
3949;SDS011;53057;50.988;6.314;2023-02-28T11:27:50;2.80;;;1.90;;
3949;SDS011;53057;50.988;6.314;2023-02-28T11:30:31;3.00;;;2.57;;
3949;SDS011;53057;50.988;6.314;2023-02-28T11:32:57;6.27;;;3.03;;
3949;SDS011;53057;50.988;6.314;2023-02-28T11:35:26;3.80;;;2.07;;
3949;SDS011;53057;50.988;6.314;2023-02-28T11:37:54;3.13;;;2.50;;
3949;SDS011;53057;50.988;6.314;2023-02-28T11:40:28;3.23;;;2.70;;
3949;SDS011;53057;50.988;6.314;2023-02-28T11:45:36;4.63;;;2.43;;
3949;SDS011;53057;50.988;6.314;2023-02-28T11:50:45;5.90;;;2.80;;
3949;SDS011;53057;50.988;6.314;2023-02-28T11:58:44;3.43;;;2.60;;
3949;SDS011;53057;50.988;6.314;2023-02-28T12:07:08;3.83;;;2.97;;
3949;SDS011;53057;50.988;6.314;2023-02-28T12:14:59;4.27;;;3.17;;
3949;SDS011;53057;50.988;6.314;2023-02-28T12:20:02;6.43;;;3.27;;
3949;SDS011;53057;50.988;6.314;2023-02-28T12:22:33;3.77;;;3.40;;
3949;SDS011;53057;50.988;6.314;2023-02-28T12:27:41;4.57;;;3.00;;
3949;SDS011;53057;50.988;6.314;2023-02-28T12:30:17;5.07;;;2.87;;
3949;SDS011;53057;50.988;6.314;2023-02-28T12:32:47;10.80;;;3.20;;
3949;SDS011;53057;50.988;6.314;2023-02-28T12:35:16;12.47;;;3.00;;
3949;SDS011;53057;50.988;6.314;2023-02-28T12:40:21;4.80;;;3.47;;
3949;SDS011;53057;50.988;6.314;2023-02-28T12:42:52;3.50;;;3.23;;
3949;SDS011;53057;50.988;6.314;2023-02-28T12:45:21;3.50;;;2.90;;
3949;SDS011;53057;50.988;6.314;2023-02-28T12:47:50;3.07;;;2.87;;
3949;SDS011;53057;50.988;6.314;2023-02-28T12:50:19;5.97;;;3.43;;
3949;SDS011;53057;50.988;6.314;2023-02-28T12:58:19;3.90;;;3.27;;
3949;SDS011;53057;50.988;6.314;2023-02-28T13:06:34;3.07;;;2.90;;
3949;SDS011;53057;50.988;6.314;2023-02-28T13:09:05;4.57;;;4.13;;
3949;SDS011;53057;50.988;6.314;2023-02-28T13:11:42;6.60;;;3.90;;
3949;SDS011;53057;50.988;6.314;2023-02-28T13:14:43;4.53;;;3.27;;
3949;SDS011;53057;50.988;6.314;2023-02-28T13:19:29;3.67;;;3.40;;
3949;SDS011;53057;50.988;6.314;2023-02-28T13:21:57;4.10;;;3.13;;
3949;SDS011;53057;50.988;6.314;2023-02-28T13:24:39;3.43;;;3.03;;
3949;SDS011;53057;50.988;6.314;2023-02-28T13:29:36;4.07;;;3.70;;
3949;SDS011;53057;50.988;6.314;2023-02-28T13:39:49;5.00;;;3.90;;
3949;SDS011;53057;50.988;6.314;2023-02-28T13:47:29;5.43;;;4.00;;
3949;SDS011;53057;50.988;6.314;2023-02-28T13:56:17;11.37;;;3.13;;
3949;SDS011;53057;50.988;6.314;2023-02-28T14:11:32;5.33;;;3.53;;
3949;SDS011;53057;50.988;6.314;2023-02-28T14:14:00;5.77;;;3.93;;
3949;SDS011;53057;50.988;6.314;2023-02-28T14:16:27;3.83;;;3.40;;
3949;SDS011;53057;50.988;6.314;2023-02-28T14:19:02;5.87;;;3.80;;
3949;SDS011;53057;50.988;6.314;2023-02-28T14:21:35;3.63;;;2.40;;
3949;SDS011;53057;50.988;6.314;2023-02-28T14:31:45;3.97;;;3.53;;
3949;SDS011;53057;50.988;6.314;2023-02-28T14:34:20;4.47;;;4.17;;
3949;SDS011;53057;50.988;6.314;2023-02-28T14:36:49;9.77;;;3.50;;
3949;SDS011;53057;50.988;6.314;2023-02-28T14:39:19;4.83;;;4.50;;
3949;SDS011;53057;50.988;6.314;2023-02-28T14:41:46;5.37;;;3.80;;
3949;SDS011;53057;50.988;6.314;2023-02-28T14:44:18;3.97;;;3.20;;
3949;SDS011;53057;50.988;6.314;2023-02-28T14:46:45;3.83;;;3.40;;
3949;SDS011;53057;50.988;6.314;2023-02-28T14:49:17;3.40;;;3.20;;
3949;SDS011;53057;50.988;6.314;2023-02-28T14:51:44;4.40;;;3.70;;
3949;SDS011;53057;50.988;6.314;2023-02-28T14:54:14;3.40;;;3.20;;
3949;SDS011;53057;50.988;6.314;2023-02-28T14:56:42;5.63;;;3.63;;
3949;SDS011;53057;50.988;6.314;2023-02-28T14:59:25;3.73;;;3.43;;
3949;SDS011;53057;50.988;6.314;2023-02-28T15:01:53;8.30;;;3.60;;
3949;SDS011;53057;50.988;6.314;2023-02-28T15:04:33;3.70;;;3.30;;
3949;SDS011;53057;50.988;6.314;2023-02-28T15:07:07;3.57;;;3.20;;
3949;SDS011;53057;50.988;6.314;2023-02-28T15:09:34;3.70;;;3.07;;
3949;SDS011;53057;50.988;6.314;2023-02-28T15:12:00;3.80;;;3.40;;
3949;SDS011;53057;50.988;6.314;2023-02-28T15:14:27;3.80;;;3.40;;
3949;SDS011;53057;50.988;6.314;2023-02-28T15:17:00;5.97;;;3.53;;
3949;SDS011;53057;50.988;6.314;2023-02-28T15:19:39;2.83;;;2.70;;
3949;SDS011;53057;50.988;6.314;2023-02-28T15:22:08;6.93;;;4.10;;
3949;SDS011;53057;50.988;6.314;2023-02-28T15:24:42;4.00;;;3.20;;
3949;SDS011;53057;50.988;6.314;2023-02-28T15:27:27;4.50;;;3.80;;
3949;SDS011;53057;50.988;6.314;2023-02-28T15:29:57;4.10;;;3.80;;
3949;SDS011;53057;50.988;6.314;2023-02-28T15:32:34;3.90;;;3.47;;
3949;SDS011;53057;50.988;6.314;2023-02-28T15:37:47;4.47;;;4.07;;
3949;SDS011;53057;50.988;6.314;2023-02-28T15:43:03;4.13;;;3.80;;
3949;SDS011;53057;50.988;6.314;2023-02-28T15:45:32;3.00;;;2.80;;
3949;SDS011;53057;50.988;6.314;2023-02-28T15:48:01;4.47;;;4.10;;
3949;SDS011;53057;50.988;6.314;2023-02-28T15:50:39;3.70;;;3.37;;
3949;SDS011;53057;50.988;6.314;2023-02-28T15:53:11;4.40;;;4.00;;
3949;SDS011;53057;50.988;6.314;2023-02-28T15:55:38;4.43;;;4.03;;
3949;SDS011;53057;50.988;6.314;2023-02-28T15:58:08;6.47;;;4.13;;
3949;SDS011;53057;50.988;6.314;2023-02-28T16:00:38;6.07;;;4.53;;
3949;SDS011;53057;50.988;6.314;2023-02-28T16:03:32;12.67;;;4.23;;
3949;SDS011;53057;50.988;6.314;2023-02-28T16:06:09;5.20;;;4.40;;
3949;SDS011;53057;50.988;6.314;2023-02-28T16:08:35;4.50;;;4.10;;
3949;SDS011;53057;50.988;6.314;2023-02-28T16:11:02;5.73;;;5.10;;
3949;SDS011;53057;50.988;6.314;2023-02-28T16:13:28;7.70;;;4.80;;
3949;SDS011;53057;50.988;6.314;2023-02-28T16:15:55;4.40;;;4.10;;
3949;SDS011;53057;50.988;6.314;2023-02-28T16:18:22;10.13;;;5.07;;
3949;SDS011;53057;50.988;6.314;2023-02-28T16:20:49;5.20;;;4.00;;
3949;SDS011;53057;50.988;6.314;2023-02-28T16:23:15;12.23;;;5.30;;
3949;SDS011;53057;50.988;6.314;2023-02-28T16:25:42;5.90;;;4.97;;
3949;SDS011;53057;50.988;6.314;2023-02-28T16:28:17;8.77;;;5.33;;
3949;SDS011;53057;50.988;6.314;2023-02-28T16:30:44;5.83;;;5.30;;
3949;SDS011;53057;50.988;6.314;2023-02-28T16:33:11;6.00;;;5.07;;
3949;SDS011;53057;50.988;6.314;2023-02-28T16:35:38;5.20;;;4.80;;
3949;SDS011;53057;50.988;6.314;2023-02-28T16:38:04;7.27;;;5.73;;
3949;SDS011;53057;50.988;6.314;2023-02-28T16:40:33;8.07;;;5.30;;
3949;SDS011;53057;50.988;6.314;2023-02-28T16:42:59;5.87;;;5.30;;
3949;SDS011;53057;50.988;6.314;2023-02-28T16:45:27;10.97;;;6.07;;
3949;SDS011;53057;50.988;6.314;2023-02-28T16:47:54;11.47;;;5.50;;
3949;SDS011;53057;50.988;6.314;2023-02-28T16:50:22;9.30;;;5.60;;
3949;SDS011;53057;50.988;6.314;2023-02-28T16:52:49;9.07;;;6.40;;
3949;SDS011;53057;50.988;6.314;2023-02-28T16:55:18;6.13;;;5.53;;
3949;SDS011;53057;50.988;6.314;2023-02-28T16:57:46;10.73;;;7.13;;
3949;SDS011;53057;50.988;6.314;2023-02-28T17:00:15;7.00;;;6.30;;
3949;SDS011;53057;50.988;6.314;2023-02-28T17:02:42;9.90;;;6.80;;
3949;SDS011;53057;50.988;6.314;2023-02-28T17:05:12;11.87;;;7.20;;
3949;SDS011;53057;50.988;6.314;2023-02-28T17:07:42;10.03;;;7.87;;
3949;SDS011;53057;50.988;6.314;2023-02-28T17:10:15;10.70;;;7.23;;
3949;SDS011;53057;50.988;6.314;2023-02-28T17:12:42;9.10;;;6.60;;
3949;SDS011;53057;50.988;6.314;2023-02-28T17:15:13;9.60;;;8.33;;
3949;SDS011;53057;50.988;6.314;2023-02-28T17:17:41;15.67;;;7.07;;
3949;SDS011;53057;50.988;6.314;2023-02-28T17:20:15;18.20;;;7.17;;
3949;SDS011;53057;50.988;6.314;2023-02-28T17:22:41;10.05;;;6.57;;
3949;SDS011;53057;50.988;6.314;2023-02-28T17:25:08;11.33;;;7.83;;
3949;SDS011;53057;50.988;6.314;2023-02-28T17:27:36;11.57;;;7.70;;